createdAt,value
2018-04-14T00:02:15.846Z,12.53
2018-04-14T00:04:41.518Z,12.50
2018-04-14T00:07:07.199Z,12.52
2018-04-14T00:09:32.858Z,12.49
2018-04-14T00:11:58.554Z,12.51
2018-04-14T00:14:24.220Z,12.52
2018-04-14T00:16:49.903Z,12.52
2018-04-14T00:19:15.566Z,12.51
2018-04-14T00:21:41.240Z,12.54
2018-04-14T00:24:06.920Z,12.52
2018-04-14T00:26:32.603Z,12.49
2018-04-14T00:28:58.279Z,12.45
2018-04-14T00:31:24.411Z,12.39
2018-04-14T00:33:50.070Z,12.37
2018-04-14T00:36:15.748Z,12.36
2018-04-14T00:38:41.416Z,12.32
2018-04-14T00:41:07.070Z,12.30
2018-04-14T00:43:32.759Z,12.26
2018-04-14T00:45:58.459Z,12.17
2018-04-14T00:48:24.114Z,12.13
2018-04-14T00:50:50.127Z,12.15
2018-04-14T00:53:21.990Z,12.14
2018-04-14T00:55:47.679Z,12.13
2018-04-14T00:58:13.380Z,12.07
2018-04-14T01:00:39.056Z,12.08
2018-04-14T01:03:04.753Z,11.99
2018-04-14T01:05:30.447Z,11.99
2018-04-14T01:07:56.179Z,11.99
2018-04-14T01:10:21.858Z,11.97
2018-04-14T01:12:47.554Z,11.93
2018-04-14T01:15:13.246Z,11.87
2018-04-14T01:17:38.910Z,11.86
2018-04-14T01:20:04.786Z,11.86
2018-04-14T01:22:30.483Z,11.82
2018-04-14T01:24:56.188Z,11.73
2018-04-14T01:27:21.842Z,11.74
2018-04-14T01:29:47.526Z,11.72
2018-04-14T01:32:13.203Z,11.63
2018-04-14T01:34:39.078Z,11.66
2018-04-14T01:37:04.734Z,11.65
2018-04-14T01:39:30.415Z,11.63
2018-04-14T01:41:56.106Z,11.57
2018-04-14T01:44:21.786Z,11.53
2018-04-14T01:46:47.501Z,11.54
2018-04-14T01:49:13.197Z,11.49
2018-04-14T01:51:38.860Z,11.43
2018-04-14T01:54:04.559Z,11.45
2018-04-14T01:56:30.215Z,11.52
2018-04-14T01:58:55.911Z,11.56
2018-04-14T02:01:21.629Z,11.64
2018-04-14T02:03:47.287Z,11.69
2018-04-14T02:06:12.958Z,11.69
2018-04-14T02:08:38.610Z,11.76
2018-04-14T02:11:04.289Z,11.78
2018-04-14T02:13:29.969Z,11.92
2018-04-14T02:15:55.698Z,11.99
2018-04-14T02:18:21.348Z,12.03
2018-04-14T02:20:47.051Z,12.06
2018-04-14T02:23:12.726Z,12.05
2018-04-14T02:25:38.400Z,12.04
2018-04-14T02:28:04.055Z,11.98
2018-04-14T02:30:29.774Z,11.92
2018-04-14T02:32:56.044Z,11.86
2018-04-14T02:35:21.703Z,11.82
2018-04-14T02:37:47.397Z,11.80
2018-04-14T02:40:13.090Z,11.77
2018-04-14T02:42:38.787Z,11.69
2018-04-14T02:45:04.451Z,11.68
2018-04-14T02:47:30.216Z,11.71
2018-04-14T02:49:55.948Z,11.71
2018-04-14T02:52:21.631Z,11.73
2018-04-14T02:54:47.299Z,11.76
2018-04-14T02:57:13.011Z,11.72
2018-04-14T02:59:38.670Z,11.71
2018-04-14T03:02:04.399Z,11.71
2018-04-14T03:04:30.075Z,11.74
2018-04-14T03:06:55.757Z,11.77
2018-04-14T03:09:21.419Z,11.68
2018-04-14T03:11:47.084Z,11.73
2018-04-14T03:14:12.799Z,11.71
2018-04-14T03:16:38.451Z,11.69
2018-04-14T03:19:04.133Z,11.67
2018-04-14T03:21:29.898Z,11.66
2018-04-14T03:23:55.563Z,11.68
2018-04-14T03:26:21.219Z,11.70
2018-04-14T03:28:46.941Z,11.71
2018-04-14T03:31:12.577Z,11.71
2018-04-14T03:33:38.339Z,11.74
2018-04-14T03:36:04.034Z,11.75
2018-04-14T03:38:29.713Z,11.76
2018-04-14T03:40:55.385Z,11.80
2018-04-14T03:43:21.042Z,11.83
2018-04-14T03:45:46.729Z,11.88
2018-04-14T03:48:12.408Z,11.88
2018-04-14T03:50:38.077Z,11.88
2018-04-14T03:53:03.783Z,11.91
2018-04-14T03:55:29.490Z,11.95
2018-04-14T03:57:55.143Z,11.96
2018-04-14T04:00:21.031Z,11.96
2018-04-14T04:02:46.692Z,11.92
2018-04-14T04:05:12.387Z,11.90
2018-04-14T04:07:38.052Z,11.88
2018-04-14T04:10:03.724Z,11.82
2018-04-14T04:12:29.411Z,11.80
2018-04-14T04:14:55.106Z,11.80
2018-04-14T04:17:20.822Z,11.80
2018-04-14T04:19:52.927Z,11.77
2018-04-14T04:22:24.685Z,11.76
2018-04-14T04:24:56.446Z,11.80
2018-04-14T04:27:22.116Z,11.78
2018-04-14T04:29:47.775Z,11.78
2018-04-14T04:32:13.475Z,11.77
2018-04-14T04:34:39.131Z,11.81
2018-04-14T04:37:04.825Z,11.76
2018-04-14T04:39:30.499Z,11.73
2018-04-14T04:41:56.214Z,11.72
2018-04-14T04:44:21.883Z,11.73
2018-04-14T04:46:47.579Z,11.75
2018-04-14T04:49:13.240Z,11.78
2018-04-14T04:51:38.923Z,11.80
2018-04-14T04:54:04.603Z,11.81
2018-04-14T04:56:30.275Z,11.81
2018-04-14T04:58:55.935Z,11.78
2018-04-14T05:01:21.590Z,11.76
2018-04-14T05:03:47.299Z,11.76
2018-04-14T05:06:12.999Z,11.78
2018-04-14T05:08:38.671Z,11.76
2018-04-14T05:11:04.350Z,11.79
2018-04-14T05:13:30.779Z,11.80
2018-04-14T05:15:56.467Z,11.76
2018-04-14T05:18:22.157Z,11.74
2018-04-14T05:20:47.823Z,11.74
2018-04-14T05:23:13.535Z,11.76
2018-04-14T05:25:39.188Z,11.77
2018-04-14T05:28:04.879Z,11.72
2018-04-14T05:30:30.582Z,11.69
2018-04-14T05:32:56.279Z,11.70
2018-04-14T05:35:21.942Z,11.70
2018-04-14T05:37:47.648Z,11.71
2018-04-14T05:40:13.324Z,11.72
2018-04-14T05:42:39.019Z,11.75
2018-04-14T05:45:04.686Z,11.74
2018-04-14T05:47:30.401Z,11.75
2018-04-14T05:49:56.065Z,11.77
2018-04-14T05:52:21.767Z,11.78
2018-04-14T05:54:47.649Z,11.81
2018-04-14T05:57:13.634Z,11.81
2018-04-14T05:59:39.297Z,11.81
2018-04-14T06:02:05.005Z,11.83
2018-04-14T06:04:30.716Z,11.87
2018-04-14T06:06:56.396Z,11.84
2018-04-14T06:09:22.102Z,11.86
2018-04-14T06:11:47.766Z,11.85
2018-04-14T06:14:13.462Z,11.88
2018-04-14T06:16:39.151Z,11.89
2018-04-14T06:19:04.871Z,11.93
2018-04-14T06:21:30.533Z,12.01
2018-04-14T06:23:56.203Z,12.03
2018-04-14T06:26:21.863Z,12.06
2018-04-14T06:28:47.552Z,12.10
2018-04-14T06:31:13.206Z,12.12
2018-04-14T06:33:38.907Z,12.17
2018-04-14T06:36:04.564Z,12.15
2018-04-14T06:38:30.553Z,12.19
2018-04-14T06:40:56.226Z,12.19
2018-04-14T06:43:21.935Z,12.20
2018-04-14T06:45:47.599Z,12.20
2018-04-14T06:48:13.259Z,12.23
2018-04-14T06:50:38.935Z,12.23
2018-04-14T06:53:04.653Z,12.21
2018-04-14T06:55:30.459Z,12.08
2018-04-14T06:57:56.500Z,12.15
2018-04-14T07:00:22.185Z,12.13
2018-04-14T07:02:47.850Z,12.15
2018-04-14T07:05:13.534Z,12.16
2018-04-14T07:07:39.206Z,12.19
2018-04-14T07:10:04.893Z,12.20
2018-04-14T07:12:30.542Z,12.25
2018-04-14T07:14:56.222Z,12.24
2018-04-14T07:17:21.894Z,12.24
2018-04-14T07:19:47.603Z,12.26
2018-04-14T07:22:13.251Z,12.25
2018-04-14T07:24:38.894Z,12.27
2018-04-14T07:27:04.552Z,12.31
2018-04-14T07:29:30.217Z,12.37
2018-04-14T07:31:56.300Z,12.42
2018-04-14T07:34:21.967Z,12.38
2018-04-14T07:36:47.645Z,12.40
2018-04-14T07:39:13.325Z,12.49
2018-04-14T07:41:39.176Z,12.46
2018-04-14T07:44:04.851Z,12.47
2018-04-14T07:46:30.545Z,12.48
2018-04-14T07:48:56.225Z,12.52
2018-04-14T07:51:21.940Z,12.58
2018-04-14T07:53:47.623Z,12.57
2018-04-14T07:56:13.285Z,12.56
2018-04-14T07:58:38.971Z,12.60
2018-04-14T08:01:04.663Z,12.60
2018-04-14T08:03:30.390Z,12.64
2018-04-14T08:05:56.466Z,12.70
2018-04-14T08:08:22.170Z,12.73
2018-04-14T08:10:47.862Z,12.74
2018-04-14T08:13:13.547Z,12.81
2018-04-14T08:15:39.254Z,12.86
2018-04-14T08:18:04.914Z,12.80
2018-04-14T08:20:30.580Z,12.75
2018-04-14T08:22:56.272Z,12.72
2018-04-14T08:25:21.920Z,12.71
2018-04-14T08:27:47.599Z,12.70
2018-04-14T08:30:13.255Z,12.68
2018-04-14T08:32:38.951Z,12.64
2018-04-14T08:35:04.671Z,12.65
2018-04-14T08:37:30.428Z,12.60
2018-04-14T08:39:56.035Z,12.49
2018-04-14T08:42:21.752Z,12.47
2018-04-14T08:44:47.415Z,12.40
2018-04-14T08:47:13.085Z,12.32
2018-04-14T08:49:38.864Z,12.34
2018-04-14T08:52:04.523Z,12.34
2018-04-14T08:54:30.203Z,12.36
2018-04-14T08:56:55.855Z,12.39
2018-04-14T08:59:21.846Z,12.38
2018-04-14T09:01:47.503Z,12.40
2018-04-14T09:04:13.197Z,12.42
2018-04-14T09:06:38.843Z,12.46
2018-04-14T09:09:04.540Z,12.48
2018-04-14T09:11:30.198Z,12.47
2018-04-14T09:13:55.878Z,12.52
2018-04-14T09:16:21.534Z,12.46
2018-04-14T09:18:47.199Z,12.44
2018-04-14T09:21:12.860Z,12.45
2018-04-14T09:23:38.520Z,12.44
2018-04-14T09:26:04.215Z,12.41
2018-04-14T09:28:29.878Z,12.41
2018-04-14T09:30:55.555Z,12.42
2018-04-14T09:33:21.225Z,12.42
2018-04-14T09:35:46.875Z,12.42
2018-04-14T09:38:12.544Z,12.42
2018-04-14T09:40:38.198Z,12.38
2018-04-14T09:43:03.871Z,12.33
2018-04-14T09:45:29.543Z,12.24
2018-04-14T09:47:55.231Z,12.23
2018-04-14T09:50:20.907Z,12.20
2018-04-14T09:52:46.568Z,12.14
2018-04-14T09:55:12.252Z,12.14
2018-04-14T09:57:37.917Z,12.20
2018-04-14T10:00:03.643Z,12.23
2018-04-14T10:02:30.239Z,12.27
2018-04-14T10:04:55.978Z,12.29
2018-04-14T10:07:21.638Z,12.31
2018-04-14T10:09:47.462Z,12.28
2018-04-14T10:12:13.166Z,12.25
2018-04-14T10:14:38.835Z,12.27
2018-04-14T10:17:04.503Z,12.32
2018-04-14T10:19:30.190Z,12.33
2018-04-14T10:21:55.851Z,12.30
2018-04-14T10:24:21.503Z,12.31
2018-04-14T10:26:47.479Z,12.29
2018-04-14T10:29:13.166Z,12.28
2018-04-14T10:31:38.843Z,12.28
2018-04-14T10:34:04.538Z,12.31
2018-04-14T10:36:30.216Z,12.34
2018-04-14T10:38:55.975Z,12.36
2018-04-14T10:41:21.635Z,12.41
2018-04-14T10:43:47.290Z,12.44
2018-04-14T10:46:13.019Z,12.44
2018-04-14T10:48:38.947Z,12.47
2018-04-14T10:51:04.603Z,12.52
2018-04-14T10:53:30.310Z,12.53
2018-04-14T10:55:55.960Z,12.57
2018-04-14T10:58:21.643Z,12.59
2018-04-14T11:00:47.325Z,12.63
2018-04-14T11:03:12.999Z,12.63
2018-04-14T11:05:38.700Z,12.64
2018-04-14T11:08:04.374Z,12.52
2018-04-14T11:10:30.038Z,12.64
2018-04-14T11:12:55.744Z,12.59
2018-04-14T11:15:21.461Z,12.55
2018-04-14T11:17:47.154Z,12.52
2018-04-14T11:20:12.813Z,12.50
2018-04-14T11:22:38.490Z,12.49
2018-04-14T11:25:04.188Z,12.46
2018-04-14T11:27:29.931Z,12.51
2018-04-14T11:29:55.675Z,12.56
2018-04-14T11:32:21.342Z,12.58
2018-04-14T11:34:47.021Z,12.60
2018-04-14T11:37:12.675Z,12.57
2018-04-14T11:39:38.386Z,12.54
2018-04-14T11:42:04.055Z,12.56
2018-04-14T11:44:29.746Z,12.54
2018-04-14T11:46:55.414Z,12.54
2018-04-14T11:49:21.102Z,12.60
2018-04-14T11:51:46.781Z,12.65
2018-04-14T11:54:12.482Z,12.69
2018-04-14T11:56:38.285Z,12.69
2018-04-14T11:59:04.018Z,12.73
2018-04-14T12:01:29.684Z,12.72
2018-04-14T12:03:56.502Z,12.74
2018-04-14T12:06:22.338Z,12.75
2018-04-14T12:08:48.007Z,12.77
2018-04-14T12:11:13.690Z,12.74
2018-04-14T12:13:39.361Z,12.75
2018-04-14T12:16:05.042Z,12.73
2018-04-14T12:18:30.714Z,12.72
2018-04-14T12:20:56.391Z,12.72
2018-04-14T12:23:22.130Z,12.71
2018-04-14T12:25:47.827Z,12.72
2018-04-14T12:28:13.479Z,12.73
2018-04-14T12:30:39.173Z,12.68
2018-04-14T12:33:04.833Z,12.64
2018-04-14T12:35:30.593Z,12.64
2018-04-14T12:37:58.064Z,12.61
2018-04-14T12:40:23.743Z,12.63
2018-04-14T12:42:49.438Z,12.67
2018-04-14T12:45:15.122Z,12.71
2018-04-14T12:47:40.771Z,12.74
2018-04-14T12:50:06.552Z,12.74
2018-04-14T12:52:32.206Z,12.75
2018-04-14T12:54:57.864Z,12.77
2018-04-14T12:57:23.534Z,12.80
2018-04-14T12:59:49.203Z,12.78
2018-04-14T13:02:14.938Z,12.79
2018-04-14T13:04:40.639Z,12.83
2018-04-14T13:07:06.299Z,12.86
2018-04-14T13:09:31.951Z,12.85
2018-04-14T13:11:57.607Z,12.85
2018-04-14T13:14:23.271Z,12.86
2018-04-14T13:16:49.025Z,12.82
2018-04-14T13:19:14.757Z,12.80
2018-04-14T13:21:40.431Z,12.79
2018-04-14T13:24:06.098Z,12.73
2018-04-14T13:26:31.794Z,12.69
2018-04-14T13:28:57.456Z,12.65
2018-04-14T13:31:23.158Z,12.61
2018-04-14T13:33:48.829Z,12.59
2018-04-14T13:36:14.567Z,12.64
2018-04-14T13:38:40.270Z,12.63
2018-04-14T13:41:05.982Z,12.66
2018-04-14T13:43:31.719Z,12.67
2018-04-14T13:45:57.563Z,12.69
2018-04-14T13:48:23.247Z,12.71
2018-04-14T13:50:48.916Z,12.75
2018-04-14T13:53:14.603Z,12.78
2018-04-14T13:55:40.262Z,12.73
2018-04-14T13:58:05.935Z,12.75
2018-04-14T14:00:31.599Z,12.79
2018-04-14T14:02:57.275Z,12.80
2018-04-14T14:05:22.971Z,12.78
2018-04-14T14:07:48.644Z,12.79
2018-04-14T14:10:14.311Z,12.79
2018-04-14T14:12:39.974Z,12.77
2018-04-14T14:15:05.647Z,12.75
2018-04-14T14:17:31.347Z,12.71
2018-04-14T14:19:57.018Z,12.68
2018-04-14T14:22:22.681Z,12.65
2018-04-14T14:24:48.614Z,12.65
2018-04-14T14:27:14.312Z,12.61
2018-04-14T14:29:40.023Z,12.50
2018-04-14T14:32:05.759Z,12.54
2018-04-14T14:34:31.423Z,12.49
2018-04-14T14:36:57.125Z,12.44
2018-04-14T14:39:22.790Z,12.45
2018-04-14T14:41:48.507Z,12.44
2018-04-14T14:44:14.189Z,12.30
2018-04-14T14:46:39.867Z,12.45
2018-04-14T14:49:05.545Z,12.46
2018-04-14T14:51:31.266Z,12.48
2018-04-14T14:53:56.935Z,12.53
2018-04-14T14:56:22.652Z,12.56
2018-04-14T14:58:48.331Z,12.56
2018-04-14T15:01:14.115Z,12.55
2018-04-14T15:03:39.771Z,12.54
2018-04-14T15:06:05.437Z,12.55
2018-04-14T15:08:31.100Z,12.57
2018-04-14T15:10:56.799Z,12.60
2018-04-14T15:13:22.464Z,12.62
2018-04-14T15:15:48.152Z,12.59
2018-04-14T15:18:13.819Z,12.56
2018-04-14T15:20:39.497Z,12.51
2018-04-14T15:23:05.147Z,12.49
2018-04-14T15:25:30.885Z,12.50
2018-04-14T15:27:56.541Z,12.49
2018-04-14T15:30:22.211Z,12.48
2018-04-14T15:32:47.875Z,12.45
2018-04-14T15:35:13.555Z,12.37
2018-04-14T15:37:39.234Z,12.35
2018-04-14T15:40:04.894Z,12.36
2018-04-14T15:42:30.580Z,12.39
2018-04-14T15:44:56.241Z,12.42
2018-04-14T15:47:21.962Z,12.44
2018-04-14T15:49:47.638Z,12.44
2018-04-14T15:52:13.484Z,12.47
2018-04-14T15:54:39.151Z,12.47
2018-04-14T15:57:04.857Z,12.48
2018-04-14T15:59:30.520Z,12.50
2018-04-14T16:01:56.356Z,12.52
2018-04-14T16:04:22.032Z,12.54
2018-04-14T16:06:47.737Z,12.56
2018-04-14T16:09:13.404Z,12.59
2018-04-14T16:11:39.062Z,12.59
2018-04-14T16:14:04.716Z,12.59
2018-04-14T16:16:30.386Z,12.60
2018-04-14T16:18:56.078Z,12.63
2018-04-14T16:21:21.791Z,12.65
2018-04-14T16:23:47.472Z,12.66
2018-04-14T16:26:13.360Z,12.69
2018-04-14T16:28:39.093Z,12.73
2018-04-14T16:31:04.734Z,12.78
2018-04-14T16:33:30.403Z,12.83
2018-04-14T16:35:56.071Z,12.87
2018-04-14T16:38:21.714Z,12.92
2018-04-14T16:40:47.373Z,12.96
2018-04-14T16:51:30.111Z,12.99
2018-04-14T16:53:55.770Z,12.98
2018-04-14T16:56:21.462Z,12.98
2018-04-14T16:58:47.120Z,13.00
2018-04-14T17:01:13.071Z,13.03
2018-04-14T17:03:38.786Z,13.02
2018-04-14T17:06:04.662Z,13.02
2018-04-14T17:08:30.574Z,13.06
2018-04-14T17:10:56.232Z,13.12
2018-04-14T17:13:21.915Z,13.15
2018-04-14T17:15:47.599Z,13.14
2018-04-14T17:18:13.272Z,13.14
2018-04-14T17:20:38.974Z,13.14
2018-04-14T17:23:04.663Z,13.18
2018-04-14T17:25:30.343Z,13.18
2018-04-14T17:27:56.010Z,13.22
2018-04-14T17:30:21.727Z,13.26
2018-04-14T17:32:48.291Z,13.28
2018-04-14T17:35:14.007Z,13.22
2018-04-14T17:37:39.666Z,13.25
2018-04-14T17:40:05.630Z,13.21
2018-04-14T17:42:31.291Z,13.19
2018-04-14T17:44:56.971Z,13.16
2018-04-14T17:47:22.638Z,13.14
2018-04-14T17:49:48.332Z,13.10
2018-04-14T17:52:14.007Z,13.12
2018-04-14T17:54:39.688Z,13.10
2018-04-14T17:57:05.410Z,13.05
2018-04-14T17:59:31.062Z,12.99
2018-04-14T18:01:56.780Z,12.95
2018-04-14T18:04:22.466Z,12.92
2018-04-14T18:06:48.204Z,12.94
2018-04-14T18:09:13.875Z,12.93
2018-04-14T18:11:39.558Z,12.94
2018-04-14T18:14:05.230Z,12.92
2018-04-14T18:16:30.908Z,12.94
2018-04-14T18:18:56.588Z,12.96
2018-04-14T18:21:22.277Z,12.94
2018-04-14T18:23:47.982Z,12.92
2018-04-14T18:26:13.677Z,12.89
2018-04-14T18:28:39.346Z,12.86
2018-04-14T18:31:05.022Z,12.83
2018-04-14T18:33:30.736Z,12.82
2018-04-14T18:35:56.407Z,12.82
2018-04-14T18:38:22.112Z,12.80
2018-04-14T18:40:47.783Z,12.83
2018-04-14T18:43:13.480Z,12.80
2018-04-14T18:45:39.157Z,12.80
2018-04-14T18:48:04.870Z,12.78
2018-04-14T18:50:30.680Z,12.77
2018-04-14T18:52:56.363Z,12.75
2018-04-14T18:55:22.035Z,12.73
2018-04-14T18:57:47.706Z,12.74
2018-04-14T19:00:13.358Z,12.74
2018-04-14T19:02:39.034Z,12.79
2018-04-14T19:05:04.691Z,12.83
2018-04-14T19:07:30.379Z,12.86
2018-04-14T19:09:56.038Z,12.84
2018-04-14T19:12:21.713Z,12.83
2018-04-14T19:14:47.370Z,12.79
2018-04-14T19:17:13.027Z,12.76
2018-04-14T19:19:38.813Z,12.75
2018-04-14T19:22:04.502Z,12.73
2018-04-14T19:24:30.260Z,12.72
2018-04-14T19:26:55.912Z,12.71
2018-04-14T19:29:21.578Z,12.73
2018-04-14T19:31:47.583Z,12.76
2018-04-14T19:34:13.292Z,12.76
2018-04-14T19:36:38.946Z,12.73
2018-04-14T19:39:04.645Z,12.70
2018-04-14T19:41:30.336Z,12.76
2018-04-14T19:43:56.037Z,12.77
2018-04-14T19:46:21.691Z,12.80
2018-04-14T19:48:47.688Z,12.80
2018-04-14T19:51:13.407Z,12.78
2018-04-14T19:53:39.083Z,12.78
2018-04-14T19:56:04.761Z,12.75
2018-04-14T19:58:30.440Z,12.75
2018-04-14T20:00:56.106Z,12.75
2018-04-14T20:03:21.767Z,12.78
2018-04-14T20:05:47.814Z,12.78
2018-04-14T20:08:13.483Z,12.75
2018-04-14T20:10:39.145Z,12.76
2018-04-14T20:13:04.814Z,12.76
2018-04-14T20:15:30.543Z,12.75
2018-04-14T20:17:56.199Z,12.76
2018-04-14T20:20:21.886Z,12.75
2018-04-14T20:22:47.651Z,12.73
2018-04-14T20:25:13.380Z,12.69
2018-04-14T20:27:39.058Z,12.67
2018-04-14T20:30:04.752Z,12.66
2018-04-14T20:32:30.414Z,12.69
2018-04-14T20:34:56.107Z,12.70
2018-04-14T20:37:21.762Z,12.72
2018-04-14T20:39:47.433Z,12.76
2018-04-14T20:42:13.116Z,12.76
2018-04-14T20:44:38.791Z,12.82
2018-04-14T20:47:04.473Z,12.83
2018-04-14T20:49:30.143Z,12.83
2018-04-14T20:51:55.834Z,12.81
2018-04-14T20:54:21.510Z,12.76
2018-04-14T20:56:47.190Z,12.79
2018-04-14T20:59:12.865Z,12.74
2018-04-14T21:01:38.594Z,12.75
2018-04-14T21:04:04.267Z,12.74
2018-04-14T21:06:29.934Z,12.73
2018-04-14T21:08:55.610Z,12.76
2018-04-14T21:11:21.287Z,12.81
2018-04-14T21:13:46.978Z,12.80
2018-04-14T21:16:12.679Z,12.76
2018-04-14T21:18:38.411Z,12.74
2018-04-14T21:21:04.090Z,12.72
2018-04-14T21:23:29.808Z,12.72
2018-04-14T21:25:55.504Z,12.75
2018-04-14T21:28:21.219Z,12.80
2018-04-14T21:30:46.913Z,12.82
2018-04-14T21:33:12.608Z,12.85
2018-04-14T21:35:38.304Z,12.83
2018-04-14T21:38:04.007Z,12.80
2018-04-14T21:40:29.747Z,12.80
2018-04-14T21:42:55.438Z,12.80
2018-04-14T21:45:21.109Z,12.82
2018-04-14T21:47:46.802Z,12.80
2018-04-14T21:50:12.491Z,12.77
2018-04-14T21:52:38.165Z,12.74
2018-04-14T21:55:03.843Z,12.74
2018-04-14T21:57:29.532Z,12.76
2018-04-14T21:59:55.195Z,12.74
2018-04-14T22:02:20.866Z,12.77
2018-04-14T22:04:46.567Z,12.75
2018-04-14T22:07:12.448Z,12.72
2018-04-14T22:09:38.151Z,12.72
2018-04-14T22:12:03.865Z,12.71
2018-04-14T22:14:31.547Z,12.72
2018-04-14T22:16:57.315Z,12.72
2018-04-14T22:19:23.035Z,12.74
2018-04-14T22:21:48.696Z,12.76
2018-04-14T22:24:14.392Z,12.76
2018-04-14T22:26:40.080Z,12.77
2018-04-14T22:29:05.796Z,12.77
2018-04-14T22:31:31.463Z,12.79
2018-04-14T22:33:57.167Z,12.80
2018-04-14T22:36:22.838Z,12.78
2018-04-14T22:38:48.507Z,12.76
2018-04-14T22:41:14.167Z,12.77
2018-04-14T22:43:39.853Z,12.79
2018-04-14T22:46:05.525Z,12.84
2018-04-14T22:48:31.186Z,12.85
2018-04-14T22:50:57.135Z,12.85
2018-04-14T22:53:22.804Z,12.86
2018-04-14T22:55:48.506Z,12.83
2018-04-14T22:58:14.167Z,12.69
2018-04-14T23:00:39.876Z,12.78
2018-04-14T23:03:05.543Z,12.78
2018-04-14T23:05:31.327Z,12.82
2018-04-14T23:07:57.036Z,12.82
2018-04-14T23:10:22.698Z,12.80
2018-04-14T23:12:48.399Z,12.80
2018-04-14T23:15:14.206Z,12.79
2018-04-14T23:17:39.854Z,12.77
2018-04-14T23:20:05.523Z,12.80
2018-04-14T23:22:31.195Z,12.79
2018-04-14T23:24:56.866Z,12.78
2018-04-14T23:27:22.589Z,12.74
2018-04-14T23:29:48.255Z,12.73
2018-04-14T23:32:13.953Z,12.76
2018-04-14T23:34:39.654Z,12.77
2018-04-14T23:37:05.316Z,12.78
2018-04-14T23:39:31.016Z,12.77
2018-04-14T23:41:56.683Z,12.78
2018-04-14T23:44:22.360Z,12.80
2018-04-14T23:55:00.362Z,12.74
